Time,TemperatureF,DewpointF,PressureIn,WindDirection,WindDirectionDegrees,WindSpeedMPH,WindSpeedGustMPH,Humidity,HourlyPrecipIn,Conditions,Clouds,dailyrainin,SoftwareType,DateUTC
2013-03-03 00:05:00,22.8,22.1,29.87,SSE,157,2.7,-999.0,97,-99.99,,,0.00,Acu-Link.com,2013-03-03 05:05:00,
2013-03-03 00:20:00,22.6,21.9,29.87,SSE,157,2.2,-999.0,97,-99.99,,,0.00,Acu-Link.com,2013-03-03 05:20:00,
2013-03-03 00:35:00,22.5,21.8,29.87,SE,135,1.1,-999.0,97,-99.99,,,0.00,Acu-Link.com,2013-03-03 05:35:00,
2013-03-03 00:51:00,22.5,21.8,29.87,ESE,112,1.7,-999.0,97,-99.99,,,0.00,Acu-Link.com,2013-03-03 05:51:00,
2013-03-03 01:06:00,22.3,21.6,29.87,ESE,112,1.7,-999.0,97,-99.99,,,0.00,Acu-Link.com,2013-03-03 06:06:00,
2013-03-03 01:21:00,22.1,21.4,29.87,ESE,112,3.7,-999.0,97,-99.99,,,0.00,Acu-Link.com,2013-03-03 06:21:00,
2013-03-03 01:36:00,21.9,21.2,29.88,ESE,112,0.0,-999.0,97,-99.99,,,0.00,Acu-Link.com,2013-03-03 06:36:00,
2013-03-03 01:51:00,21.7,21.0,29.87,ESE,112,1.1,-999.0,97,-99.99,,,0.00,Acu-Link.com,2013-03-03 06:51:00,
2013-03-03 02:07:00,21.6,20.9,29.87,ESE,112,2.2,-999.0,97,-99.99,,,0.00,Acu-Link.com,2013-03-03 07:07:00,
2013-03-03 02:22:00,21.4,20.7,29.87,ENE,67,0.0,-999.0,97,-99.99,,,0.00,Acu-Link.com,2013-03-03 07:22:00,
2013-03-03 02:37:00,21.2,20.5,29.86,SSE,157,0.0,-999.0,97,-99.99,,,0.00,Acu-Link.com,2013-03-03 07:37:00,
2013-03-03 02:52:00,21.2,20.5,29.86,South,180,2.7,-999.0,97,-99.99,,,0.00,Acu-Link.com,2013-03-03 07:52:00,
2013-03-03 03:07:00,21.2,20.5,29.86,SSW,202,0.0,-999.0,97,-99.99,,,0.00,Acu-Link.com,2013-03-03 08:07:00,
2013-03-03 03:23:00,21.2,20.5,29.86,SSE,157,0.0,-999.0,97,-99.99,,,0.00,Acu-Link.com,2013-03-03 08:23:00,
2013-03-03 03:38:00,20.8,20.1,29.86,South,180,2.2,-999.0,97,-99.99,,,0.00,Acu-Link.com,2013-03-03 08:38:00,
2013-03-03 03:53:00,20.8,20.1,29.85,South,180,2.7,-999.0,97,-99.99,,,0.00,Acu-Link.com,2013-03-03 08:53:00,
2013-03-03 04:19:00,20.7,20.0,29.85,SSE,157,5.8,-999.0,97,-99.99,,,0.00,Acu-Link.com,2013-03-03 09:19:00,
2013-03-03 04:34:00,20.5,19.8,29.86,SSE,157,0.0,-999.0,97,-99.99,,,0.00,Acu-Link.com,2013-03-03 09:34:00,
2013-03-03 04:49:00,20.3,19.6,29.86,SSE,157,4.7,-999.0,97,-99.99,,,0.00,Acu-Link.com,2013-03-03 09:49:00,
2013-03-03 05:04:00,20.1,19.1,29.85,South,180,3.2,-999.0,96,-99.99,,,0.00,Acu-Link.com,2013-03-03 10:04:00,
2013-03-03 05:19:00,20.1,19.1,29.86,SSE,157,0.0,-999.0,96,-99.99,,,0.00,Acu-Link.com,2013-03-03 10:19:00,
2013-03-03 05:34:00,20.1,18.9,29.86,SSE,157,3.7,-999.0,95,-99.99,,,0.00,Acu-Link.com,2013-03-03 10:34:00,
2013-03-03 05:50:00,19.9,18.5,29.86,SSE,157,2.2,-999.0,94,-99.99,,,0.00,Acu-Link.com,2013-03-03 10:50:00,
2013-03-03 06:05:00,20.1,18.4,29.87,SE,135,2.2,-999.0,93,-99.99,,,0.00,Acu-Link.com,2013-03-03 11:05:00,
2013-03-03 06:20:00,20.1,18.2,29.86,SSE,157,1.1,-999.0,92,-99.99,,,0.00,Acu-Link.com,2013-03-03 11:20:00,
2013-03-03 06:35:00,20.1,18.2,29.86,SSE,157,0.0,-999.0,92,-99.99,,,0.00,Acu-Link.com,2013-03-03 11:35:00,
2013-03-03 06:50:00,20.1,18.2,29.87,SSE,157,1.1,-999.0,92,-99.99,,,0.00,Acu-Link.com,2013-03-03 11:50:00,
2013-03-03 07:06:00,20.1,18.4,29.87,SSE,157,2.2,-999.0,93,-99.99,,,0.00,Acu-Link.com,2013-03-03 12:06:00,
2013-03-03 07:21:00,20.1,18.9,29.87,SSE,157,3.2,-999.0,95,-99.99,,,0.00,Acu-Link.com,2013-03-03 12:21:00,
2013-03-03 07:36:00,20.3,19.1,29.88,SSE,157,2.7,-999.0,95,-99.99,,,0.00,Acu-Link.com,2013-03-03 12:36:00,
2013-03-03 07:51:00,20.7,19.5,29.87,SSE,157,2.2,-999.0,95,-99.99,,,0.00,Acu-Link.com,2013-03-03 12:51:00,
2013-03-03 08:06:00,21.0,19.8,29.87,SSE,157,2.7,-999.0,95,-99.99,,,0.00,Acu-Link.com,2013-03-03 13:06:00,
2013-03-03 08:22:00,22.3,20.6,29.87,SSE,157,2.7,-999.0,93,-99.99,,,0.00,Acu-Link.com,2013-03-03 13:22:00,
2013-03-03 08:37:00,23.2,21.0,29.87,SSE,157,1.7,-999.0,91,-99.99,,,0.00,Acu-Link.com,2013-03-03 13:37:00,
2013-03-03 08:52:00,24.3,20.5,29.87,SE,135,4.2,-999.0,85,-99.99,,,0.00,Acu-Link.com,2013-03-03 13:52:00,
2013-03-03 09:07:00,24.3,20.2,29.86,SSE,157,2.7,-999.0,84,-99.99,,,0.00,Acu-Link.com,2013-03-03 14:07:00,
2013-03-03 09:22:00,24.8,20.7,29.87,South,180,0.0,-999.0,84,-99.99,,,0.00,Acu-Link.com,2013-03-03 14:22:00,
2013-03-03 09:38:00,24.4,20.3,29.87,SSE,157,4.7,-999.0,84,-99.99,,,0.00,Acu-Link.com,2013-03-03 14:38:00,
2013-03-03 09:53:00,25.0,21.1,29.86,South,180,3.2,-999.0,85,-99.99,,,0.00,Acu-Link.com,2013-03-03 14:53:00,
2013-03-03 10:08:00,27.0,21.7,29.86,SSW,202,2.2,-999.0,80,-99.99,,,0.00,Acu-Link.com,2013-03-03 15:08:00,
2013-03-03 10:23:00,26.6,21.0,29.87,SSE,157,4.7,-999.0,79,-99.99,,,0.00,Acu-Link.com,2013-03-03 15:23:00,
2013-03-03 10:39:00,26.2,20.3,29.87,SSW,202,2.7,-999.0,78,-99.99,,,0.00,Acu-Link.com,2013-03-03 15:39:00,
2013-03-03 10:54:00,26.6,21.0,29.86,SSW,202,3.7,-999.0,79,-99.99,,,0.00,Acu-Link.com,2013-03-03 15:54:00,
2013-03-03 11:09:00,28.2,21.6,29.86,SSW,202,2.7,-999.0,76,-99.99,,,0.00,Acu-Link.com,2013-03-03 16:09:00,
2013-03-03 11:24:00,29.3,23.3,29.86,South,180,1.7,-999.0,78,-99.99,,,0.00,Acu-Link.com,2013-03-03 16:24:00,
2013-03-03 11:39:00,31.5,24.2,29.86,SE,135,2.2,-999.0,74,-99.99,,,0.00,Acu-Link.com,2013-03-03 16:39:00,
2013-03-03 11:55:00,28.2,22.2,29.88,SSW,202,3.2,-999.0,78,-99.99,,,0.00,Acu-Link.com,2013-03-03 16:55:00,
2013-03-03 12:10:00,30.9,23.6,29.88,SSW,202,1.7,-999.0,74,-99.99,,,0.00,Acu-Link.com,2013-03-03 17:10:00,
2013-03-03 12:25:00,28.9,22.0,29.87,SE,135,2.7,-999.0,75,-99.99,,,0.00,Acu-Link.com,2013-03-03 17:25:00,
2013-03-03 12:40:00,27.0,21.7,29.87,SSE,157,6.3,-999.0,80,-99.99,,,0.00,Acu-Link.com,2013-03-03 17:40:00,
2013-03-03 12:55:00,28.2,21.6,29.86,ESE,112,2.2,-999.0,76,-99.99,,,0.00,Acu-Link.com,2013-03-03 17:55:00,
2013-03-03 13:11:00,28.4,21.2,29.86,West,270,2.2,-999.0,74,-99.99,,,0.00,Acu-Link.com,2013-03-03 18:11:00,
2013-03-03 13:26:00,27.5,21.3,29.85,SE,135,2.2,-999.0,77,-99.99,,,0.00,Acu-Link.com,2013-03-03 18:26:00,
2013-03-03 13:41:00,27.3,20.8,29.85,SW,225,4.7,-999.0,76,-99.99,,,0.00,Acu-Link.com,2013-03-03 18:41:00,
2013-03-03 13:57:00,27.1,20.6,29.85,East,90,1.1,-999.0,76,-99.99,,,0.00,Acu-Link.com,2013-03-03 18:57:00,
2013-03-03 14:12:00,27.7,20.2,29.84,SSE,157,4.2,-999.0,73,-99.99,,,0.00,Acu-Link.com,2013-03-03 19:12:00,
2013-03-03 14:27:00,30.2,20.6,29.86,South,180,1.7,-999.0,67,-99.99,,,0.00,Acu-Link.com,2013-03-03 19:27:00,
2013-03-03 14:42:00,29.7,21.5,29.84,SSE,157,1.1,-999.0,71,-99.99,,,0.00,Acu-Link.com,2013-03-03 19:42:00,
2013-03-03 14:57:00,26.4,20.2,29.85,SSE,157,5.8,-999.0,77,-99.99,,,0.00,Acu-Link.com,2013-03-03 19:57:00,
2013-03-03 15:13:00,26.4,19.6,29.85,SSE,157,3.2,-999.0,75,-99.99,,,0.00,Acu-Link.com,2013-03-03 20:13:00,
2013-03-03 15:28:00,26.8,19.0,29.86,SSE,157,0.0,-999.0,72,-99.99,,,0.00,Acu-Link.com,2013-03-03 20:28:00,
2013-03-03 15:43:00,26.1,19.6,29.85,SSE,157,3.2,-999.0,76,-99.99,,,0.00,Acu-Link.com,2013-03-03 20:43:00,
2013-03-03 15:58:00,26.1,19.6,29.85,South,180,7.3,-999.0,76,-99.99,,,0.00,Acu-Link.com,2013-03-03 20:58:00,
2013-03-03 16:13:00,25.3,19.7,29.85,SE,135,4.2,-999.0,79,-99.99,,,0.00,Acu-Link.com,2013-03-03 21:13:00,
2013-03-03 16:29:00,25.7,19.8,29.87,SE,135,0.0,-999.0,78,-99.99,,,0.00,Acu-Link.com,2013-03-03 21:29:00,
2013-03-03 16:44:00,25.0,19.1,29.87,SE,135,2.7,-999.0,78,-99.99,,,0.00,Acu-Link.com,2013-03-03 21:44:00,
2013-03-03 16:59:00,25.3,19.1,29.86,SE,135,1.7,-999.0,77,-99.99,,,0.00,Acu-Link.com,2013-03-03 21:59:00,
2013-03-03 17:14:00,24.6,19.0,29.88,South,180,0.0,-999.0,79,-99.99,,,0.00,Acu-Link.com,2013-03-03 22:14:00,
2013-03-03 17:29:00,24.4,18.5,29.87,SSE,157,4.2,-999.0,78,-99.99,,,0.00,Acu-Link.com,2013-03-03 22:29:00,
2013-03-03 17:45:00,23.2,18.3,29.87,SSE,157,1.1,-999.0,81,-99.99,,,0.00,Acu-Link.com,2013-03-03 22:45:00,
2013-03-03 18:00:00,22.8,17.6,29.87,SSE,157,4.2,-999.0,80,-99.99,,,0.00,Acu-Link.com,2013-03-03 23:00:00,
2013-03-03 18:15:00,22.5,17.9,29.89,SSE,157,2.7,-999.0,82,-99.99,,,0.00,Acu-Link.com,2013-03-03 23:15:00,
2013-03-03 18:30:00,22.1,17.5,29.89,WSW,247,2.2,-999.0,82,-99.99,,,0.00,Acu-Link.com,2013-03-03 23:30:00,
2013-03-03 18:46:00,21.4,16.8,29.89,South,180,2.2,-999.0,82,-99.99,,,0.00,Acu-Link.com,2013-03-03 23:46:00,
2013-03-03 19:01:00,19.9,16.1,29.89,South,180,2.7,-999.0,85,-99.99,,,0.00,Acu-Link.com,2013-03-04 00:01:00,
2013-03-03 19:16:00,20.5,16.2,29.89,SSW,202,2.2,-999.0,83,-99.99,,,0.00,Acu-Link.com,2013-03-04 00:16:00,
2013-03-03 19:31:00,21.0,16.1,29.89,South,180,4.2,-999.0,81,-99.99,,,0.00,Acu-Link.com,2013-03-04 00:31:00,
2013-03-03 19:46:00,21.0,16.4,29.90,South,180,4.2,-999.0,82,-99.99,,,0.00,Acu-Link.com,2013-03-04 00:46:00,
2013-03-03 20:02:00,21.0,16.7,29.91,South,180,1.1,-999.0,83,-99.99,,,0.00,Acu-Link.com,2013-03-04 01:02:00,
2013-03-03 20:17:00,21.0,16.4,29.90,South,180,4.2,-999.0,82,-99.99,,,0.00,Acu-Link.com,2013-03-04 01:17:00,
2013-03-03 20:32:00,21.0,16.7,29.90,South,180,1.1,-999.0,83,-99.99,,,0.00,Acu-Link.com,2013-03-04 01:32:00,
2013-03-03 20:48:00,21.0,16.7,29.90,South,180,0.0,-999.0,83,-99.99,,,0.00,Acu-Link.com,2013-03-04 01:48:00,
2013-03-03 21:03:00,21.0,16.7,29.90,South,180,2.7,-999.0,83,-99.99,,,0.00,Acu-Link.com,2013-03-04 02:03:00,
2013-03-03 21:18:00,21.2,17.1,29.91,South,180,1.7,-999.0,84,-99.99,,,0.00,Acu-Link.com,2013-03-04 02:18:00,
2013-03-03 21:33:00,21.4,17.3,29.91,SSW,202,2.7,-999.0,84,-99.99,,,0.00,Acu-Link.com,2013-03-04 02:33:00,
2013-03-03 21:48:00,21.4,17.6,29.91,SSE,157,3.2,-999.0,85,-99.99,,,0.00,Acu-Link.com,2013-03-04 02:48:00,
2013-03-03 22:04:00,21.4,19.2,29.91,SSE,157,0.0,-999.0,91,-99.99,,,0.00,Acu-Link.com,2013-03-04 03:04:00,
2013-03-03 22:19:00,21.4,19.4,29.91,SE,135,0.0,-999.0,92,-99.99,,,0.00,Acu-Link.com,2013-03-04 03:19:00,
2013-03-03 22:34:00,21.4,19.7,29.91,SE,135,0.0,-999.0,93,-99.99,,,0.00,Acu-Link.com,2013-03-04 03:34:00,
2013-03-03 22:49:00,21.0,19.3,29.91,SE,135,1.7,-999.0,93,-99.99,,,0.00,Acu-Link.com,2013-03-04 03:49:00,
2013-03-03 23:04:00,20.8,18.9,29.91,SE,135,1.7,-999.0,92,-99.99,,,0.00,Acu-Link.com,2013-03-04 04:04:00,
2013-03-03 23:20:00,20.7,18.8,29.92,SE,135,0.0,-999.0,92,-99.99,,,0.00,Acu-Link.com,2013-03-04 04:20:00,
2013-03-03 23:35:00,20.3,18.4,29.91,SE,135,0.0,-999.0,92,-99.99,,,0.00,Acu-Link.com,2013-03-04 04:35:00,
2013-03-03 23:50:00,19.0,17.1,29.92,SE,135,0.0,-999.0,92,-99.99,,,0.00,Acu-Link.com,2013-03-04 04:50:00,